Langley Air Force Base
KLFI : now visible

Airfield :











YOU CAN JOIN US ON...

 
LOGIN :

Register | Disclaimer

   EN    FR    IT 

 









Legend :    VFR   Marginal VFR   IFR   Intensive IFR   Very Intensive IFR
Visi :
Ceiling :
>= 8 km
>= 3000ft
5 to 8 km
1000 to 3000 ft
1500m to 5 km
500 to 1000 ft
800 to 1500m
200 to 500 ft
< 800m
< 200 ft
Symbols :   Thunderstorms  Fog  Heavy snow  Heavy precipitations  Wind > 20 kt






- Airport Elevation : 11 ft


KLFI - Langley Air Force Base

EXPIRED METARs :
  • 060807Z AUTO 30007KT 9SM -RA FEW110 23/23 A2986 RMK AO2 RAE05RAB07 SLP118 $

TAF AMD TAF KLFI
Valid from the 05 at 23:00 until the 06 at 23:00 UTC


052300Z 0523/0623 23009KT 9000 -SHRA BKN020 QNH2982INS
BECMG 0602/0603 20009KT 9999 NSW BKN025 QNH2980INS
BECMG 0609/0610 22009KT 9000 -SHRA OVC007 QNH2979INS
TEMPO 0614/0619 25010G15KT 4800 -TSRA OVC010CB
BECMG 0619/0620 VRB06KT 9000 -SHRA SCT025 QNH2975INS TX25/0621Z TN21/0609Z LAST NO AMDS AFTER 0523 NEXT 0809
KZDC FIR / North America



MET'MAP, your aeronautical weather chart ! - Copyright ORBIFLY December 2007 - Disclaimer

ORBIFLY MET'MAP TEAM :

Programming & Development : Alexandra Zaïnal
Concept & original design : Baudouin d'Aumeries
Assistance for programming : Marc-Olivier Méhu
Technical & hardware support : Manuel Goepfert

Contact : metmap@orbifly.com




SOURCES & CREDITS :

   NOAA       Earth
Advisory